createdAt,value
2023-01-18T00:04:57.761Z,-0.10
2023-01-18T00:10:01.882Z,-0.13
2023-01-18T00:15:04.931Z,-0.24
2023-01-18T00:20:11.633Z,-0.24
2023-01-18T00:25:16.394Z,-0.20
2023-01-18T00:30:21.623Z,-0.19
2023-01-18T00:35:24.699Z,-0.21
2023-01-18T00:40:30.204Z,-0.27
2023-01-18T00:45:33.009Z,-0.25
2023-01-18T00:50:35.790Z,-0.23
2023-01-18T00:55:39.880Z,-0.28
2023-01-18T01:00:42.794Z,-0.36
2023-01-18T01:06:03.307Z,-0.44
2023-01-18T01:11:09.590Z,-0.50
2023-01-18T01:16:30.060Z,-0.60
2023-01-18T01:21:50.560Z,-0.55
2023-01-18T01:26:54.900Z,-0.45
2023-01-18T01:31:57.648Z,-0.41
2023-01-18T01:37:00.688Z,-0.40
2023-01-18T01:42:04.961Z,-0.40
2023-01-18T01:47:12.899Z,-0.36
2023-01-18T01:52:20.776Z,-0.35
2023-01-18T01:57:28.608Z,-0.33
2023-01-18T02:02:33.571Z,-0.33
2023-01-18T02:07:36.940Z,-0.33
2023-01-18T02:12:43.461Z,-0.33
2023-01-18T02:18:08.034Z,-0.32
2023-01-18T02:23:34.993Z,-0.37
2023-01-18T02:28:42.613Z,-0.37
2023-01-18T02:33:49.878Z,-0.39
2023-01-18T02:38:57.098Z,-0.42
2023-01-18T02:44:19.000Z,-0.43
2023-01-18T02:49:27.239Z,-0.43
2023-01-18T02:54:32.237Z,-0.45
2023-01-18T02:59:41.937Z,-0.48
2023-01-18T03:04:54.402Z,-0.47
2023-01-18T03:09:58.832Z,-0.49
2023-01-18T03:15:13.001Z,-0.52
2023-01-18T03:20:20.370Z,-0.56
2023-01-18T03:25:29.370Z,-0.60
2023-01-18T03:30:53.106Z,-0.63
2023-01-18T03:35:58.095Z,-0.63
2023-01-18T03:41:03.244Z,-0.63
2023-01-18T03:46:08.252Z,-0.64
2023-01-18T03:51:17.092Z,-0.64
2023-01-18T03:56:25.272Z,-0.66
2023-01-18T04:01:29.805Z,-0.64
2023-01-18T04:06:33.725Z,-0.65
2023-01-18T04:25:01.881Z,-0.74
2023-01-18T04:30:06.254Z,-0.74
2023-01-18T04:35:09.691Z,-0.77
2023-01-18T04:40:14.479Z,-0.80
2023-01-18T04:45:18.474Z,-0.85
2023-01-18T04:50:21.534Z,-0.84
2023-01-18T04:55:25.679Z,-0.82
2023-01-18T05:00:28.850Z,-0.82
2023-01-18T05:05:31.596Z,-0.81
2023-01-18T05:10:36.127Z,-0.76
2023-01-18T05:15:39.044Z,-0.79
2023-01-18T05:20:41.885Z,-0.82
2023-01-18T05:25:45.983Z,-0.83
2023-01-18T05:30:50.115Z,-0.82
2023-01-18T05:35:54.719Z,-0.83
2023-01-18T05:40:59.048Z,-0.84
2023-01-18T05:46:01.972Z,-0.86
2023-01-18T05:51:09.411Z,-0.87
2023-01-18T05:56:14.288Z,-0.87
2023-01-18T06:01:17.170Z,-0.92
2023-01-18T06:06:20.066Z,-1.03
2023-01-18T06:11:24.313Z,-1.17
2023-01-18T06:16:27.121Z,-1.30
2023-01-18T06:21:29.895Z,-1.39
2023-01-18T06:26:36.338Z,-1.47
2023-01-18T06:31:39.188Z,-1.48
2023-01-18T06:36:42.143Z,-1.52
2023-01-18T06:41:46.343Z,-1.57
2023-01-18T06:46:49.381Z,-1.61
2023-01-18T06:51:52.061Z,-1.69
2023-01-18T06:56:56.427Z,-1.74
2023-01-18T07:01:59.297Z,-1.73
2023-01-18T07:07:02.124Z,-1.78
2023-01-18T07:12:07.607Z,-1.89
2023-01-18T07:17:10.552Z,-1.89
2023-01-18T07:22:14.383Z,-1.92
2023-01-18T07:27:19.403Z,-1.91
2023-01-18T07:32:22.161Z,-1.89
2023-01-18T07:37:24.987Z,-1.84
2023-01-18T07:42:29.122Z,-1.84
2023-01-18T07:47:32.056Z,-1.81
2023-01-18T07:52:35.145Z,-1.79
2023-01-18T07:57:39.488Z,-1.71
2023-01-18T08:02:42.481Z,-1.67
2023-01-18T08:07:46.764Z,-1.66
2023-01-18T08:12:51.426Z,-1.62
2023-01-18T08:17:55.415Z,-1.54
2023-01-18T08:23:00.658Z,-1.48
2023-01-18T08:28:06.494Z,-1.42
2023-01-18T08:33:09.751Z,-1.35
2023-01-18T08:38:13.771Z,-1.29
2023-01-18T08:43:18.385Z,-1.29
2023-01-18T08:48:21.196Z,-1.23
2023-01-18T08:53:24.118Z,-1.23
2023-01-18T08:58:28.168Z,-1.16
2023-01-18T09:03:30.851Z,-1.08
2023-01-18T09:08:34.446Z,-1.03
2023-01-18T09:13:58.581Z,-0.96
2023-01-18T09:19:06.221Z,-0.80
2023-01-18T09:24:09.378Z,-0.62
2023-01-18T09:29:13.795Z,-0.55
2023-01-18T09:34:19.957Z,-0.49
2023-01-18T09:39:24.132Z,-0.28
2023-01-18T09:44:30.936Z,-0.08
2023-01-18T09:49:37.920Z,0.06
2023-01-18T09:54:45.863Z,0.20
2023-01-18T09:59:55.501Z,0.31
2023-01-18T10:05:05.613Z,0.41
2023-01-18T10:10:15.950Z,0.50
2023-01-18T10:15:22.484Z,0.64
2023-01-18T10:20:36.764Z,0.78
2023-01-18T10:25:43.374Z,0.82
2023-01-18T10:31:01.617Z,0.83
2023-01-18T10:36:12.044Z,0.80
2023-01-18T10:41:20.677Z,0.79
2023-01-18T10:46:26.284Z,0.92
2023-01-18T10:51:32.637Z,1.03
2023-01-18T10:56:36.114Z,1.12
2023-01-18T11:01:55.092Z,1.36
2023-01-18T11:07:01.312Z,1.45
2023-01-18T11:12:34.717Z,1.71
2023-01-18T11:17:38.930Z,1.70
2023-01-18T11:22:55.026Z,2.35
2023-01-18T11:28:03.183Z,2.62
2023-01-18T11:33:07.372Z,2.53
2023-01-18T11:38:19.517Z,3.04
2023-01-18T11:43:27.945Z,2.70
2023-01-18T11:48:39.818Z,2.89
2023-01-18T11:53:50.824Z,3.10
2023-01-18T11:58:53.743Z,3.39
2023-01-18T12:04:03.507Z,3.30
2023-01-18T12:09:20.161Z,3.63
2023-01-18T12:14:47.515Z,3.55
2023-01-18T12:20:03.389Z,3.35
2023-01-18T12:25:22.927Z,3.85
2023-01-18T12:30:44.323Z,4.09
2023-01-18T12:36:04.999Z,3.96
2023-01-18T12:41:32.561Z,3.68
2023-01-18T12:46:44.739Z,3.44
2023-01-18T12:51:53.385Z,3.46
2023-01-18T12:56:58.949Z,3.32
2023-01-18T13:02:13.812Z,3.20
2023-01-18T13:07:23.664Z,3.21
2023-01-18T13:12:27.583Z,3.07
2023-01-18T13:17:40.102Z,3.07
2023-01-18T13:22:57.500Z,3.09
2023-01-18T13:28:01.849Z,3.12
2023-01-18T13:33:13.871Z,3.14
2023-01-18T13:38:27.520Z,3.04
2023-01-18T13:44:03.835Z,2.97
2023-01-18T13:49:37.818Z,2.96
2023-01-18T13:55:03.840Z,2.83
2023-01-18T14:00:12.770Z,2.71
2023-01-18T14:05:25.108Z,2.58
2023-01-18T14:10:33.226Z,2.47
2023-01-18T14:15:54.398Z,2.33
2023-01-18T14:21:11.697Z,2.49
2023-01-18T14:26:19.499Z,2.39
2023-01-18T14:36:54.998Z,2.23
2023-01-18T14:42:02.815Z,2.37
2023-01-18T14:47:23.911Z,2.34
2023-01-18T14:52:31.500Z,2.42
2023-01-18T14:57:35.648Z,2.45
2023-01-18T15:02:39.794Z,2.37
2023-01-18T15:07:44.493Z,2.20
2023-01-18T15:12:52.990Z,2.25
2023-01-18T15:17:58.478Z,2.16
2023-01-18T15:23:01.900Z,2.01
2023-01-18T15:28:22.774Z,1.81
2023-01-18T15:33:28.167Z,1.67
2023-01-18T15:38:31.339Z,1.49
2023-01-18T15:43:39.255Z,1.35
2023-01-18T15:48:50.032Z,1.23
2023-01-18T15:53:56.420Z,1.11
2023-01-18T15:59:03.194Z,0.97
2023-01-18T16:04:22.116Z,0.84
2023-01-18T16:09:25.498Z,0.71
2023-01-18T16:14:36.283Z,0.53
2023-01-18T16:19:43.410Z,0.30
2023-01-18T16:24:50.860Z,0.15
2023-01-18T16:29:57.313Z,-0.06
2023-01-18T16:35:01.954Z,-0.25
2023-01-18T16:40:08.743Z,-0.36
2023-01-18T16:45:15.375Z,-0.42
2023-01-18T16:50:19.895Z,-0.57
2023-01-18T16:55:23.294Z,-0.64
2023-01-18T17:00:32.272Z,-0.74
2023-01-18T17:05:34.962Z,-0.82
2023-01-18T17:10:39.964Z,-0.86
2023-01-18T17:15:45.409Z,-0.91
2023-01-18T17:20:48.287Z,-0.94
2023-01-18T17:25:51.028Z,-0.94
2023-01-18T17:30:55.996Z,-0.96
2023-01-18T17:35:58.803Z,-0.87
2023-01-18T17:41:01.633Z,-0.87
2023-01-18T17:46:06.863Z,-0.96
2023-01-18T17:51:11.511Z,-0.99
2023-01-18T17:56:15.852Z,-1.06
2023-01-18T18:01:20.944Z,-1.16
2023-01-18T18:06:31.252Z,-1.23
2023-01-18T18:11:34.480Z,-1.39
2023-01-18T18:16:43.451Z,-1.53
2023-01-18T18:21:46.840Z,-1.67
2023-01-18T18:26:49.639Z,-1.83
2023-01-18T18:31:53.861Z,-1.90
2023-01-18T18:36:56.638Z,-1.93
2023-01-18T18:41:59.587Z,-2.03
2023-01-18T18:47:05.648Z,-2.08
2023-01-18T18:52:09.671Z,-2.18
2023-01-18T18:57:12.904Z,-2.16
2023-01-18T19:02:17.192Z,-2.22
2023-01-18T19:07:20.103Z,-2.23
2023-01-18T19:12:23.086Z,-2.35
2023-01-18T19:17:30.848Z,-2.47
2023-01-18T19:22:34.065Z,-2.51
2023-01-18T19:27:36.944Z,-2.51
2023-01-18T19:32:41.117Z,-2.50
2023-01-18T19:37:44.046Z,-2.56
2023-01-18T19:42:54.527Z,-2.59
2023-01-18T19:48:00.592Z,-2.60
2023-01-18T19:53:03.684Z,-2.62
2023-01-18T19:58:06.704Z,-2.72
2023-01-18T20:03:13.829Z,-2.81
2023-01-18T20:08:16.632Z,-2.90
2023-01-18T20:13:19.848Z,-2.93
2023-01-18T20:18:23.901Z,-3.00
2023-01-18T20:23:26.775Z,-3.01
2023-01-18T20:28:29.746Z,-3.07
2023-01-18T20:33:35.466Z,-3.08
2023-01-18T20:38:38.729Z,-3.19
2023-01-18T20:43:41.567Z,-3.17
2023-01-18T20:48:45.648Z,-3.16
2023-01-18T20:53:48.327Z,-3.18
2023-01-18T20:58:51.266Z,-3.18
2023-01-18T21:03:56.270Z,-3.28
2023-01-18T21:09:01.020Z,-3.30
2023-01-18T21:14:04.067Z,-3.22
2023-01-18T21:19:09.974Z,-3.22
2023-01-18T21:24:12.832Z,-3.18
2023-01-18T21:29:15.777Z,-3.17
2023-01-18T21:34:19.954Z,-3.20
2023-01-18T21:39:25.747Z,-3.24
2023-01-18T21:44:46.320Z,-3.26
2023-01-18T21:50:17.470Z,-3.27
2023-01-18T21:55:21.049Z,-3.32
2023-01-18T22:00:24.123Z,-3.35
2023-01-18T22:05:28.529Z,-3.35
2023-01-18T22:10:31.332Z,-3.30
2023-01-18T22:15:34.155Z,-3.24
2023-01-18T22:20:38.497Z,-3.11
2023-01-18T22:25:41.380Z,-3.09
2023-01-18T22:30:44.133Z,-3.12
2023-01-18T22:35:48.363Z,-3.09
2023-01-18T22:40:51.227Z,-3.04
2023-01-18T22:45:57.212Z,-2.73
2023-01-18T22:51:02.303Z,-2.66
2023-01-18T22:56:07.522Z,-2.60
2023-01-18T23:01:18.760Z,-2.49
2023-01-18T23:06:22.992Z,-2.19
2023-01-18T23:11:27.905Z,-2.17
2023-01-18T23:16:48.440Z,-2.12
2023-01-18T23:21:53.368Z,-1.84
2023-01-18T23:26:56.136Z,-1.73
2023-01-18T23:31:59.759Z,-1.78
2023-01-18T23:37:03.940Z,-1.78
2023-01-18T23:42:24.493Z,-1.83
2023-01-18T23:47:44.737Z,-2.03
2023-01-18T23:53:06.693Z,-2.18
2023-01-18T23:58:09.564Z,-2.28
